Time;durP1;ratioP1;P1;durP2;ratioP2;P2;SDS_P1;SDS_P2;PMS_P1;PMS_P2;Temp;Humidity;BMP_temperature;BMP_pressure;BME280_temperature;BME280_humidity;BME280_pressure;Samples;Min_cycle;Max_cycle;Signal;HPM_P1;HPM_P2
2022/11/14 00:06:21;;;;;;;7.93;3.00;;;;;;;19.51;48.08;63254.28;16933816;28;20557;-27
2022/11/14 00:14:39;;;;;;;5.87;2.90;;;;;;;19.50;48.12;63253.16;16911151;28;20215;-25
2022/11/14 00:22:56;;;;;;;6.63;2.83;;;;;;;19.46;48.56;63246.03;16922700;28;20417;-26
2022/11/14 00:31:14;;;;;;;15.50;2.97;;;;;;;19.45;48.93;63241.72;16908143;28;20228;-27
2022/11/14 00:39:31;;;;;;;6.03;2.80;;;;;;;19.44;48.92;63245.84;16909215;28;20609;-26
2022/11/14 00:47:49;;;;;;;5.17;2.50;;;;;;;19.43;48.88;63245.28;16902737;28;20449;-26
2022/11/14 00:56:06;;;;;;;5.30;2.67;;;;;;;19.41;49.14;63243.03;16910747;28;20765;-26
2022/11/14 01:04:26;;;;;;;5.93;2.70;;;;;;;19.39;49.32;63240.75;16901251;28;20229;-27
2022/11/14 01:12:43;;;;;;;6.10;2.90;;;;;;;19.36;49.52;63237.38;16904632;28;20322;-26
2022/11/14 01:21:04;;;;;;;5.73;2.60;;;;;;;19.36;49.45;63232.16;16902318;28;20616;-27
2022/11/14 01:29:21;;;;;;;7.17;3.27;;;;;;;19.33;49.52;63231.38;16946194;28;20639;-26
2022/11/14 01:37:39;;;;;;;5.93;2.53;;;;;;;19.32;49.66;63232.88;16922539;28;20224;-27
2022/11/14 01:46:02;;;;;;;5.10;2.80;;;;;;;19.28;49.57;63234.16;16937608;28;20645;-27
2022/11/14 01:54:23;;;;;;;4.87;2.50;;;;;;;19.25;49.74;63225.56;16917084;28;20712;-27
2022/11/14 02:02:41;;;;;;;4.10;2.50;;;;;;;19.22;49.87;63219.00;16890650;28;20655;-26
2022/11/14 02:10:59;;;;;;;5.27;2.53;;;;;;;19.18;50.18;63217.13;16906324;28;20577;-26
2022/11/14 02:19:17;;;;;;;6.90;2.67;;;;;;;19.19;50.07;63218.25;16899161;28;20592;-27
2022/11/14 02:27:37;;;;;;;4.83;2.27;;;;;;;19.13;50.12;63211.47;16903211;28;20233;-27
2022/11/14 02:35:54;;;;;;;5.10;2.60;;;;;;;19.14;50.32;63217.84;16894413;28;20579;-27
2022/11/14 02:44:12;;;;;;;4.87;2.43;;;;;;;19.08;50.39;63209.59;16902040;28;20573;-27
2022/11/14 02:52:29;;;;;;;6.03;2.30;;;;;;;19.10;50.51;63211.28;16909993;28;20728;-27
2022/11/14 03:00:47;;;;;;;5.23;2.73;;;;;;;19.06;50.29;63204.72;16894229;28;20763;-28
2022/11/14 03:09:04;;;;;;;5.17;2.30;;;;;;;19.03;50.37;63198.72;16900451;28;20695;-27
2022/11/14 03:17:23;;;;;;;4.47;2.63;;;;;;;19.04;50.53;63199.84;16921582;28;20735;-26
2022/11/14 03:25:40;;;;;;;4.60;2.60;;;;;;;19.01;50.35;63196.47;16895676;28;20814;-26
2022/11/14 03:33:58;;;;;;;4.10;2.50;;;;;;;19.01;50.63;63199.09;16946200;28;20776;-27
2022/11/14 03:42:15;;;;;;;4.67;2.67;;;;;;;18.99;50.48;63193.66;16926506;28;20740;-27
2022/11/14 03:50:33;;;;;;;4.80;2.70;;;;;;;18.98;50.54;63195.16;16922268;28;20693;-27
2022/11/14 03:58:50;;;;;;;5.53;2.20;;;;;;;18.96;50.54;63190.28;16917412;28;20800;-27
2022/11/14 04:07:08;;;;;;;4.20;2.20;;;;;;;18.94;50.53;63188.59;16907968;28;20713;-25
2022/11/14 04:15:25;;;;;;;4.20;2.17;;;;;;;18.92;50.52;63188.97;16913924;28;20923;-25
2022/11/14 04:23:43;;;;;;;4.87;2.57;;;;;;;18.90;50.68;63184.09;16902068;28;20809;-26
2022/11/14 04:32:00;;;;;;;4.80;2.43;;;;;;;18.92;50.42;63188.97;16925200;28;20227;-27
2022/11/14 04:40:18;;;;;;;5.20;2.83;;;;;;;18.90;50.77;63184.09;16909053;28;20956;-27
2022/11/14 04:48:35;;;;;;;4.17;2.30;;;;;;;18.97;50.49;63194.59;16913225;28;21005;-26
2022/11/14 04:56:53;;;;;;;4.07;2.10;;;;;;;19.17;50.15;63216.00;16905587;28;20224;-26
2022/11/14 05:05:10;;;;;;;4.07;2.20;;;;;;;19.26;50.00;63226.13;16931556;28;20239;-26
2022/11/14 05:13:28;;;;;;;4.80;2.73;;;;;;;19.34;49.78;63235.13;16919811;28;20315;-25
2022/11/14 05:21:45;;;;;;;4.37;2.33;;;;;;;19.40;49.86;63246.56;16906395;28;20235;-27
2022/11/14 05:30:04;;;;;;;3.93;1.93;;;;;;;19.43;50.19;63250.53;16946986;28;20208;-27
2022/11/14 05:38:21;;;;;;;4.70;2.37;;;;;;;19.48;50.29;63250.34;16921737;28;20383;-27
2022/11/14 05:46:39;;;;;;;4.10;2.00;;;;;;;19.51;50.11;63254.28;16899682;28;20221;-26
2022/11/14 05:54:56;;;;;;;4.77;2.27;;;;;;;19.54;50.20;63255.03;16911792;28;20228;-26
2022/11/14 06:03:14;;;;;;;3.90;2.10;;;;;;;19.62;50.38;63260.31;16916881;28;20368;-27
2022/11/14 06:11:31;;;;;;;4.00;1.97;;;;;;;19.62;50.54;63265.56;16898453;28;20323;-26
2022/11/14 06:19:49;;;;;;;4.30;1.90;;;;;;;19.62;50.50;63266.13;16893382;28;20315;-26
2022/11/14 06:28:06;;;;;;;3.90;1.83;;;;;;;19.66;50.45;63272.69;16907456;28;20244;-26
2022/11/14 06:36:24;;;;;;;4.27;2.33;;;;;;;19.72;50.64;63274.22;16906890;28;20225;-32
2022/11/14 06:44:41;;;;;;;4.57;2.20;;;;;;;19.77;50.41;63282.47;16891948;28;20232;-32
2022/11/14 06:52:59;;;;;;;3.97;2.10;;;;;;;19.80;50.72;63285.84;16923549;28;20224;-26
2022/11/14 07:01:18;;;;;;;3.80;1.77;;;;;;;19.83;50.53;63289.22;16920348;28;20229;-28
2022/11/14 07:09:36;;;;;;;3.90;1.97;;;;;;;19.84;50.61;63289.78;16918101;28;20208;-27
2022/11/14 07:17:53;;;;;;;3.70;2.00;;;;;;;19.83;50.85;63289.22;16903276;28;20300;-25
2022/11/14 07:26:11;;;;;;;4.10;1.93;;;;;;;19.82;50.79;63287.53;16919629;28;20252;-25
2022/11/14 07:34:28;;;;;;;3.70;1.80;;;;;;;19.81;50.77;63286.97;16933039;28;20239;-27
2022/11/14 07:42:46;;;;;;;3.80;2.07;;;;;;;19.80;50.77;63285.84;16911045;28;20252;-26
2022/11/14 07:51:05;;;;;;;4.03;1.50;;;;;;;19.33;49.92;63234.00;16908061;28;20318;-27
2022/11/14 07:59:24;;;;;;;5.60;2.00;;;;;;;19.04;49.65;63202.47;16895905;28;20220;-26
2022/11/14 08:07:40;;;;;;;5.70;2.07;;;;;;;19.13;50.41;63214.09;16907628;28;20229;-26
2022/11/14 08:15:59;;;;;;;4.27;2.10;;;;;;;19.16;50.65;63212.25;16904805;28;20664;-27
2022/11/14 08:24:16;;;;;;;4.00;1.90;;;;;;;19.19;51.25;63218.78;16891269;28;20228;-27
2022/11/14 08:32:35;;;;;;;7.50;2.27;;;;;;;19.20;51.20;63219.38;16920740;28;20221;-26
2022/11/14 08:40:51;;;;;;;5.50;2.00;;;;;;;19.25;51.71;63222.38;16891305;28;20259;-26
2022/11/14 08:49:10;;;;;;;3.37;1.53;;;;;;;19.27;51.66;63225.19;16917229;28;20348;-27
2022/11/14 08:57:27;;;;;;;7.57;1.90;;;;;;;19.29;51.54;63230.06;16899000;28;20243;-27
2022/11/14 09:05:51;;;;;;;5.77;1.67;;;;;;;19.40;52.07;63243.94;16989385;23;20243;-26
2022/11/14 09:14:08;;;;;;;8.07;1.87;;;;;;;19.42;52.20;63244.16;16880483;28;20211;-26
2022/11/14 09:22:26;;;;;;;11.63;4.33;;;;;;;19.42;52.75;63241.53;16887913;23;20966;-25
2022/11/14 09:30:43;;;;;;;9.77;3.40;;;;;;;19.47;52.79;63249.78;16876827;28;20572;-25
2022/11/14 09:39:01;;;;;;;15.30;4.50;;;;;;;19.50;52.72;63253.16;16836681;29;20716;-25
2022/11/14 09:47:22;;;;;;;10.93;3.83;;;;;;;19.55;52.91;63258.22;16829969;29;20673;-26
2022/11/14 09:55:41;;;;;;;10.03;3.00;;;;;;;19.55;53.01;63258.78;16848979;29;20224;-25
2022/11/14 10:04:10;;;;;;;7.57;3.03;;;;;;;19.60;52.98;63263.84;16825000;29;20599;-26
2022/11/14 10:12:40;;;;;;;7.63;3.30;;;;;;;19.59;53.07;63262.19;16861082;29;20395;-29
2022/11/14 10:21:00;;;;;;;12.30;2.97;;;;;;;19.62;53.37;63263.50;16833968;28;20682;-25
2022/11/14 10:29:39;;;;;;;6.87;3.03;;;;;;;19.61;53.43;63264.41;16814270;29;20316;-28
2022/11/14 10:38:05;;;;;;;8.20;3.20;;;;;;;19.65;53.34;63268.97;16812129;29;20594;-31
2022/11/14 10:46:28;;;;;;;8.37;2.10;;;;;;;18.50;44.86;63142.22;16837647;29;20225;-25
2022/11/14 10:54:49;;;;;;;4.13;1.50;;;;;;;18.78;43.70;63170.56;16836675;29;20767;-31
2022/11/14 11:03:07;;;;;;;8.93;1.60;;;;;;;19.34;45.15;63232.50;16848340;29;20720;-34
2022/11/14 11:11:30;;;;;;;5.07;1.70;;;;;;;19.51;46.32;63253.72;16845581;29;20555;-26
2022/11/14 11:19:49;;;;;;;4.07;1.50;;;;;;;19.81;47.43;63286.41;16817964;28;20877;-27
2022/11/14 11:28:11;;;;;;;3.37;1.43;;;;;;;19.86;47.71;63292.06;16823725;29;20670;-27
2022/11/14 11:36:36;;;;;;;4.10;1.60;;;;;;;19.92;47.97;63296.19;16853462;28;20830;-27
2022/11/14 11:44:58;;;;;;;6.60;1.67;;;;;;;19.96;48.38;63298.63;16841058;29;20701;-28
2022/11/14 11:53:24;;;;;;;6.80;1.60;;;;;;;19.97;48.99;63305.00;16861615;29;20268;-27
2022/11/14 12:01:41;;;;;;;4.90;1.37;;;;;;;19.98;49.56;63306.13;16828786;29;20232;-28
2022/11/14 12:10:05;;;;;;;9.00;1.50;;;;;;;19.97;49.92;63302.38;16870032;29;20224;-28
2022/11/14 12:18:51;;;;;;;6.10;1.50;;;;;;;20.26;49.32;63333.94;16845546;28;20202;-27
2022/11/14 12:27:34;;;;;;;19.37;2.10;;;;;;;20.28;49.78;63335.63;16812088;29;20272;-26
2022/11/14 12:35:53;;;;;;;4.83;1.80;;;;;;;20.29;50.33;63334.72;16819252;29;20225;-26
2022/11/14 12:44:30;;;;;;;7.23;1.60;;;;;;;20.96;48.27;63411.19;16823726;29;20376;-26
2022/11/14 12:52:49;;;;;;;9.13;1.83;;;;;;;20.97;47.99;63409.13;16864202;29;20709;-27
2022/11/14 13:01:42;;;;;;;3.80;1.20;;;;;;;20.76;48.70;63389.19;16873751;29;20239;-26
2022/11/14 13:10:13;;;;;;;4.10;1.60;;;;;;;20.42;49.56;63354.03;16832817;29;20225;-27
2022/11/14 13:27:25;;;;;;;4.60;1.57;;;;;;;20.32;49.96;63345.97;16826983;29;20299;-27
2022/11/14 13:35:51;;;;;;;4.90;1.57;;;;;;;20.34;49.87;63345.03;16851348;29;20217;-27
2022/11/14 13:44:35;;;;;;;6.33;1.73;;;;;;;20.43;49.88;63358.34;16838489;29;20375;-27
2022/11/14 13:52:54;;;;;;;4.17;1.80;;;;;;;20.39;49.88;63348.03;16874566;29;20227;-26
2022/11/14 14:01:27;;;;;;;3.67;1.37;;;;;;;20.40;50.00;63352.34;16853777;29;20230;-25
2022/11/14 14:09:54;;;;;;;4.50;1.67;;;;;;;20.40;49.89;63349.72;16873675;29;20229;-28
2022/11/14 14:18:23;;;;;;;3.90;1.37;;;;;;;20.43;49.97;63355.72;16832139;29;20212;-25
2022/11/14 14:26:58;;;;;;;4.43;1.50;;;;;;;20.46;50.04;63358.53;16843187;29;20312;-25
2022/11/14 14:35:23;;;;;;;5.40;1.70;;;;;;;20.42;50.09;63349.34;16858106;29;20273;-29
2022/11/14 14:43:43;;;;;;;4.10;1.20;;;;;;;20.40;50.20;63351.78;16839494;29;20228;-33
2022/11/14 14:52:00;;;;;;;3.13;1.10;;;;;;;20.39;50.32;63350.66;16828898;29;20337;-26
2022/11/14 15:00:22;;;;;;;7.53;1.60;;;;;;;20.30;50.35;63341.06;16859491;29;20233;-25
2022/11/14 15:08:39;;;;;;;5.57;1.63;;;;;;;20.28;50.52;63338.81;16853475;29;20228;-28
2022/11/14 15:16:59;;;;;;;3.97;1.40;;;;;;;20.24;50.55;63336.94;16868486;29;20201;-29
2022/11/14 15:25:22;;;;;;;3.83;1.50;;;;;;;20.21;50.62;63330.94;16872443;29;20265;-29
2022/11/14 15:33:40;;;;;;;4.60;1.70;;;;;;;20.19;50.81;63328.69;16869709;29;20303;-31
2022/11/14 15:42:12;;;;;;;5.00;1.30;;;;;;;20.15;50.83;63329.41;16834969;29;20236;-28
2022/11/14 15:50:32;;;;;;;6.93;1.50;;;;;;;19.71;52.49;63278.91;16829348;29;20236;-25
2022/11/14 15:58:49;;;;;;;5.77;1.67;;;;;;;19.66;52.50;63270.06;16825757;29;20698;-28
2022/11/14 16:07:11;;;;;;;5.67;1.50;;;;;;;19.71;52.70;63273.09;16834194;29;20233;-25
2022/11/14 16:15:28;;;;;;;4.40;1.37;;;;;;;19.67;52.15;63276.44;16846856;29;20765;-28
2022/11/14 16:23:48;;;;;;;9.40;1.43;;;;;;;19.68;52.36;63270.28;16827433;29;20229;-26
2022/11/14 16:32:05;;;;;;;6.33;1.60;;;;;;;19.76;52.62;63281.34;16834664;29;20236;-25
2022/11/14 16:40:26;;;;;;;6.97;1.70;;;;;;;19.72;52.90;63276.84;16827421;29;20304;-28
2022/11/14 16:48:43;;;;;;;5.57;1.87;;;;;;;19.73;52.90;63280.59;16834962;29;20206;-26
2022/11/14 16:57:01;;;;;;;10.07;4.73;;;;;;;19.61;53.36;63264.41;16826904;29;20201;-28
2022/11/14 17:05:18;;;;;;;20.30;7.10;;;;;;;19.54;53.38;63254.47;16833777;29;20235;-27
2022/11/14 17:13:36;;;;;;;14.83;5.40;;;;;;;19.48;53.15;63250.34;16824205;29;20248;-25
2022/11/14 17:21:53;;;;;;;16.10;5.83;;;;;;;19.48;53.19;63250.34;16835526;29;20323;-25
2022/11/14 17:30:13;;;;;;;20.07;7.67;;;;;;;19.54;53.25;63262.91;16819855;29;20277;-28
2022/11/14 17:38:32;;;;;;;16.73;6.57;;;;;;;19.52;52.67;63254.84;16797987;29;20216;-27
2022/11/14 17:46:50;;;;;;;16.73;6.80;;;;;;;19.52;53.30;63258.03;16804364;29;20268;-28
2022/11/14 17:55:08;;;;;;;14.43;6.50;;;;;;;19.50;52.79;63250.53;16816756;29;20737;-27
2022/11/14 18:03:27;;;;;;;17.33;6.83;;;;;;;19.49;52.90;63252.03;16826309;29;20276;-26
2022/11/14 18:11:44;;;;;;;18.60;6.13;;;;;;;19.52;52.75;63252.78;16825022;29;20224;-27
2022/11/14 18:20:02;;;;;;;10.87;5.53;;;;;;;19.52;52.80;63255.41;16794407;29;20857;-26
2022/11/14 18:28:19;;;;;;;10.93;4.90;;;;;;;19.51;52.70;63254.28;16835126;29;20216;-25
2022/11/14 18:36:37;;;;;;;14.30;5.43;;;;;;;19.55;52.79;63258.78;16831496;28;20218;-26
2022/11/14 18:44:54;;;;;;;12.40;6.03;;;;;;;19.53;52.95;63256.53;16852693;28;20257;-27
2022/11/14 18:53:13;;;;;;;22.27;6.20;;;;;;;19.60;53.52;63258.59;16844991;29;20217;-29
2022/11/14 19:01:30;;;;;;;11.40;5.47;;;;;;;19.57;53.07;63259.91;16837312;29;20241;-26
2022/11/14 19:09:49;;;;;;;14.30;4.90;;;;;;;19.63;53.32;63266.69;16830995;29;20233;-27
2022/11/14 19:18:05;;;;;;;10.60;5.07;;;;;;;19.60;52.79;63263.84;16809818;29;20210;-25
2022/11/14 19:26:24;;;;;;;20.27;5.00;;;;;;;19.64;53.38;63267.78;16834668;29;20226;-26
2022/11/14 19:34:40;;;;;;;32.47;6.50;;;;;;;19.59;53.46;63259.56;16842862;29;20236;-26
2022/11/14 19:43:02;;;;;;;18.90;6.20;;;;;;;19.60;53.71;63260.69;16838067;29;20226;-27
2022/11/14 19:51:21;;;;;;;25.27;6.40;;;;;;;19.64;53.75;63270.41;16828033;29;20225;-26
2022/11/14 19:59:39;;;;;;;23.60;7.17;;;;;;;19.68;53.88;63270.28;16838433;29;20358;-29
2022/11/14 20:07:56;;;;;;;22.03;6.53;;;;;;;19.72;53.96;63277.41;16821428;29;20232;-26
2022/11/14 20:16:16;;;;;;;15.87;6.80;;;;;;;19.69;54.62;63273.47;16849474;29;20253;-27
2022/11/14 20:24:33;;;;;;;25.13;7.37;;;;;;;19.57;54.95;63257.28;16837684;29;20221;-26
2022/11/14 20:32:51;;;;;;;12.80;5.90;;;;;;;19.57;55.21;63260.47;16822484;28;20220;-28
2022/11/14 20:41:10;;;;;;;19.03;6.20;;;;;;;19.54;55.13;63255.03;16795920;29;20228;-27
2022/11/14 20:49:28;;;;;;;17.47;5.70;;;;;;;19.54;55.01;63257.66;16827553;29;20222;-28
2022/11/14 20:57:45;;;;;;;15.93;6.30;;;;;;;19.54;54.99;63254.47;16789522;29;20217;-27
2022/11/14 21:06:05;;;;;;;14.57;5.87;;;;;;;19.53;54.88;63256.53;16828731;23;20239;-28
2022/11/14 21:14:22;;;;;;;11.93;5.57;;;;;;;19.55;55.05;63258.78;16823747;29;20217;-26
2022/11/14 21:22:40;;;;;;;14.50;5.50;;;;;;;19.54;55.04;63255.03;16861802;23;20623;-25
2022/11/14 21:30:59;;;;;;;12.30;5.30;;;;;;;19.51;54.64;63256.91;16881637;28;20864;-24
2022/11/14 21:39:17;;;;;;;14.43;5.70;;;;;;;19.53;55.00;63253.91;16890632;28;20588;-24
2022/11/14 21:47:34;;;;;;;10.63;5.70;;;;;;;19.53;55.23;63255.97;16887431;28;20596;-24
2022/11/14 21:55:53;;;;;;;14.93;5.30;;;;;;;19.53;55.16;63253.91;16894802;28;20709;-25
2022/11/14 22:04:12;;;;;;;18.70;6.87;;;;;;;19.52;56.06;63255.41;16878021;28;20821;-25
2022/11/14 22:12:30;;;;;;;21.10;6.13;;;;;;;19.52;56.33;63257.47;16898764;28;20700;-24
2022/11/14 22:20:48;;;;;;;11.63;6.07;;;;;;;19.51;55.86;63249.03;16922797;28;20614;-25
2022/11/14 22:29:07;;;;;;;12.43;5.23;;;;;;;19.51;56.05;63251.66;16921768;28;20899;-25
2022/11/14 22:37:23;;;;;;;17.53;5.80;;;;;;;19.54;56.10;63257.66;16892395;28;20684;-25
2022/11/14 22:45:41;;;;;;;14.00;6.13;;;;;;;19.54;56.09;63254.47;16886921;28;20780;-24
2022/11/14 22:53:58;;;;;;;14.60;6.20;;;;;;;19.51;56.37;63253.72;16877393;28;20728;-24
2022/11/14 23:02:17;;;;;;;13.80;6.23;;;;;;;19.60;56.70;63263.28;16853455;28;20904;-25
2022/11/14 23:10:34;;;;;;;9.63;5.20;;;;;;;19.78;55.66;63278.91;16885580;28;20696;-25
2022/11/14 23:18:54;;;;;;;14.83;6.53;;;;;;;19.81;55.48;63286.97;16897001;28;20202;-25
2022/11/14 23:27:10;;;;;;;14.20;6.27;;;;;;;19.81;55.40;63286.41;16897542;28;20236;-25
2022/11/14 23:35:29;;;;;;;12.70;5.57;;;;;;;19.78;55.18;63284.16;16908740;28;20732;-24
2022/11/14 23:43:45;;;;;;;12.07;5.30;;;;;;;19.78;54.94;63281.53;16907238;28;20229;-25
2022/11/14 23:52:04;;;;;;;13.63;5.73;;;;;;;19.77;54.90;63279.84;16907155;28;20311;-24
